sensor_id;sensor_type;location;lat;lon;timestamp;P1;durP1;ratioP1;P2;durP2;ratioP2
71108;SDS011;59614;51.012;-1.648;2023-07-16T00:01:18;27.92;;;5.30;;
71108;SDS011;59614;51.012;-1.648;2023-07-16T00:03:43;29.73;;;5.22;;
71108;SDS011;59614;51.012;-1.648;2023-07-16T00:06:09;28.73;;;4.72;;
71108;SDS011;59614;51.012;-1.648;2023-07-16T00:08:34;31.33;;;5.75;;
71108;SDS011;59614;51.012;-1.648;2023-07-16T00:11:00;27.88;;;5.53;;
71108;SDS011;59614;51.012;-1.648;2023-07-16T00:13:25;26.00;;;5.35;;
71108;SDS011;59614;51.012;-1.648;2023-07-16T00:15:50;41.22;;;6.03;;
71108;SDS011;59614;51.012;-1.648;2023-07-16T00:18:16;27.30;;;5.28;;
71108;SDS011;59614;51.012;-1.648;2023-07-16T00:20:41;29.50;;;5.30;;
71108;SDS011;59614;51.012;-1.648;2023-07-16T00:23:07;33.80;;;6.78;;
71108;SDS011;59614;51.012;-1.648;2023-07-16T00:25:32;32.05;;;5.88;;
71108;SDS011;59614;51.012;-1.648;2023-07-16T00:27:57;37.40;;;6.40;;
71108;SDS011;59614;51.012;-1.648;2023-07-16T00:30:23;28.80;;;5.53;;
71108;SDS011;59614;51.012;-1.648;2023-07-16T00:32:48;29.35;;;5.70;;
71108;SDS011;59614;51.012;-1.648;2023-07-16T00:35:14;31.75;;;6.60;;
71108;SDS011;59614;51.012;-1.648;2023-07-16T00:37:39;30.92;;;5.82;;
71108;SDS011;59614;51.012;-1.648;2023-07-16T00:40:05;30.08;;;5.95;;
71108;SDS011;59614;51.012;-1.648;2023-07-16T00:42:31;37.10;;;6.22;;
71108;SDS011;59614;51.012;-1.648;2023-07-16T00:44:56;35.22;;;6.63;;
71108;SDS011;59614;51.012;-1.648;2023-07-16T00:47:22;27.00;;;5.32;;
71108;SDS011;59614;51.012;-1.648;2023-07-16T00:49:47;24.38;;;5.25;;
71108;SDS011;59614;51.012;-1.648;2023-07-16T00:52:15;40.95;;;6.18;;
71108;SDS011;59614;51.012;-1.648;2023-07-16T00:54:43;36.63;;;6.22;;
71108;SDS011;59614;51.012;-1.648;2023-07-16T00:57:09;33.55;;;6.85;;
71108;SDS011;59614;51.012;-1.648;2023-07-16T00:59:34;38.55;;;5.78;;
71108;SDS011;59614;51.012;-1.648;2023-07-16T01:01:59;30.80;;;5.50;;
71108;SDS011;59614;51.012;-1.648;2023-07-16T01:04:25;35.38;;;5.25;;
71108;SDS011;59614;51.012;-1.648;2023-07-16T01:06:51;33.35;;;5.75;;
71108;SDS011;59614;51.012;-1.648;2023-07-16T01:09:20;38.90;;;5.97;;
71108;SDS011;59614;51.012;-1.648;2023-07-16T01:11:46;30.17;;;5.88;;
71108;SDS011;59614;51.012;-1.648;2023-07-16T01:14:13;26.35;;;5.82;;
71108;SDS011;59614;51.012;-1.648;2023-07-16T01:16:41;31.98;;;5.43;;
71108;SDS011;59614;51.012;-1.648;2023-07-16T01:19:07;30.75;;;6.07;;
71108;SDS011;59614;51.012;-1.648;2023-07-16T01:32:19;29.55;;;6.03;;
71108;SDS011;59614;51.012;-1.648;2023-07-16T01:34:47;21.92;;;6.10;;
71108;SDS011;59614;51.012;-1.648;2023-07-16T01:37:13;31.83;;;5.45;;
71108;SDS011;59614;51.012;-1.648;2023-07-16T01:39:39;34.42;;;5.68;;
71108;SDS011;59614;51.012;-1.648;2023-07-16T01:42:05;34.03;;;6.38;;
71108;SDS011;59614;51.012;-1.648;2023-07-16T01:44:30;38.50;;;5.97;;
71108;SDS011;59614;51.012;-1.648;2023-07-16T01:49:27;23.80;;;4.82;;
71108;SDS011;59614;51.012;-1.648;2023-07-16T01:51:52;40.40;;;5.85;;
71108;SDS011;59614;51.012;-1.648;2023-07-16T01:54:18;29.75;;;5.88;;
71108;SDS011;59614;51.012;-1.648;2023-07-16T01:56:43;29.30;;;5.82;;
71108;SDS011;59614;51.012;-1.648;2023-07-16T01:59:08;35.47;;;6.38;;
71108;SDS011;59614;51.012;-1.648;2023-07-16T02:01:34;32.90;;;6.18;;
71108;SDS011;59614;51.012;-1.648;2023-07-16T02:03:59;36.17;;;6.13;;
71108;SDS011;59614;51.012;-1.648;2023-07-16T02:06:25;33.30;;;6.30;;
71108;SDS011;59614;51.012;-1.648;2023-07-16T02:08:50;19.42;;;5.00;;
71108;SDS011;59614;51.012;-1.648;2023-07-16T02:11:15;34.42;;;5.85;;
71108;SDS011;59614;51.012;-1.648;2023-07-16T02:13:41;44.15;;;5.88;;
71108;SDS011;59614;51.012;-1.648;2023-07-16T02:16:06;30.63;;;5.63;;
71108;SDS011;59614;51.012;-1.648;2023-07-16T02:18:32;29.50;;;5.82;;
71108;SDS011;59614;51.012;-1.648;2023-07-16T02:20:57;32.95;;;5.47;;
71108;SDS011;59614;51.012;-1.648;2023-07-16T02:23:23;35.08;;;5.85;;
71108;SDS011;59614;51.012;-1.648;2023-07-16T02:25:48;26.35;;;4.95;;
71108;SDS011;59614;51.012;-1.648;2023-07-16T02:28:13;24.63;;;5.22;;
71108;SDS011;59614;51.012;-1.648;2023-07-16T02:30:40;32.55;;;5.75;;
71108;SDS011;59614;51.012;-1.648;2023-07-16T02:33:06;21.63;;;4.95;;
71108;SDS011;59614;51.012;-1.648;2023-07-16T02:35:31;33.70;;;4.95;;
71108;SDS011;59614;51.012;-1.648;2023-07-16T02:37:56;28.30;;;5.05;;
71108;SDS011;59614;51.012;-1.648;2023-07-16T02:40:22;29.17;;;5.05;;
71108;SDS011;59614;51.012;-1.648;2023-07-16T02:42:47;32.00;;;5.20;;
71108;SDS011;59614;51.012;-1.648;2023-07-16T02:45:13;37.40;;;5.70;;
71108;SDS011;59614;51.012;-1.648;2023-07-16T02:47:38;31.55;;;5.47;;
71108;SDS011;59614;51.012;-1.648;2023-07-16T02:50:04;24.23;;;5.05;;
71108;SDS011;59614;51.012;-1.648;2023-07-16T02:52:29;25.42;;;4.78;;
71108;SDS011;59614;51.012;-1.648;2023-07-16T02:54:55;29.05;;;5.30;;
71108;SDS011;59614;51.012;-1.648;2023-07-16T02:57:21;32.70;;;5.10;;
71108;SDS011;59614;51.012;-1.648;2023-07-16T02:59:47;33.17;;;5.47;;
71108;SDS011;59614;51.012;-1.648;2023-07-16T03:02:13;25.63;;;4.57;;
71108;SDS011;59614;51.012;-1.648;2023-07-16T03:04:38;32.78;;;5.80;;
71108;SDS011;59614;51.012;-1.648;2023-07-16T03:07:04;30.45;;;5.43;;
71108;SDS011;59614;51.012;-1.648;2023-07-16T03:09:30;26.65;;;5.07;;
71108;SDS011;59614;51.012;-1.648;2023-07-16T03:11:55;31.90;;;5.50;;
71108;SDS011;59614;51.012;-1.648;2023-07-16T03:14:20;25.02;;;5.13;;
71108;SDS011;59614;51.012;-1.648;2023-07-16T03:16:46;34.22;;;5.22;;
71108;SDS011;59614;51.012;-1.648;2023-07-16T03:19:11;30.95;;;5.45;;
71108;SDS011;59614;51.012;-1.648;2023-07-16T03:21:37;23.88;;;5.22;;
71108;SDS011;59614;51.012;-1.648;2023-07-16T03:24:02;35.78;;;6.00;;
71108;SDS011;59614;51.012;-1.648;2023-07-16T03:26:28;26.55;;;5.13;;
71108;SDS011;59614;51.012;-1.648;2023-07-16T03:28:54;29.08;;;5.18;;
71108;SDS011;59614;51.012;-1.648;2023-07-16T03:31:20;22.20;;;4.20;;
71108;SDS011;59614;51.012;-1.648;2023-07-16T03:33:45;20.25;;;4.50;;
71108;SDS011;59614;51.012;-1.648;2023-07-16T03:36:11;22.58;;;4.32;;
71108;SDS011;59614;51.012;-1.648;2023-07-16T03:38:36;27.67;;;4.43;;
71108;SDS011;59614;51.012;-1.648;2023-07-16T03:41:02;24.33;;;4.78;;
71108;SDS011;59614;51.012;-1.648;2023-07-16T03:43:27;26.38;;;5.25;;
71108;SDS011;59614;51.012;-1.648;2023-07-16T03:45:52;23.80;;;4.22;;
71108;SDS011;59614;51.012;-1.648;2023-07-16T03:48:18;29.67;;;4.90;;
71108;SDS011;59614;51.012;-1.648;2023-07-16T03:50:43;22.65;;;4.88;;
71108;SDS011;59614;51.012;-1.648;2023-07-16T03:53:09;21.92;;;4.30;;
71108;SDS011;59614;51.012;-1.648;2023-07-16T03:55:34;23.52;;;4.68;;
71108;SDS011;59614;51.012;-1.648;2023-07-16T03:58:00;26.58;;;4.03;;
71108;SDS011;59614;51.012;-1.648;2023-07-16T04:00:26;21.23;;;4.07;;
71108;SDS011;59614;51.012;-1.648;2023-07-16T04:02:52;24.92;;;4.50;;
71108;SDS011;59614;51.012;-1.648;2023-07-16T04:05:17;24.48;;;4.40;;
71108;SDS011;59614;51.012;-1.648;2023-07-16T04:07:43;20.00;;;4.53;;
71108;SDS011;59614;51.012;-1.648;2023-07-16T04:10:09;32.83;;;4.70;;
71108;SDS011;59614;51.012;-1.648;2023-07-16T04:12:34;24.38;;;4.30;;
71108;SDS011;59614;51.012;-1.648;2023-07-16T04:14:59;28.08;;;4.57;;
71108;SDS011;59614;51.012;-1.648;2023-07-16T04:17:25;28.02;;;4.28;;
71108;SDS011;59614;51.012;-1.648;2023-07-16T04:19:51;25.23;;;4.30;;
71108;SDS011;59614;51.012;-1.648;2023-07-16T04:22:16;24.60;;;4.80;;
71108;SDS011;59614;51.012;-1.648;2023-07-16T04:24:42;26.90;;;4.55;;
71108;SDS011;59614;51.012;-1.648;2023-07-16T04:27:08;27.90;;;4.28;;
71108;SDS011;59614;51.012;-1.648;2023-07-16T04:29:33;24.85;;;5.03;;
71108;SDS011;59614;51.012;-1.648;2023-07-16T04:31:59;25.15;;;4.78;;
71108;SDS011;59614;51.012;-1.648;2023-07-16T04:34:24;19.83;;;4.55;;
71108;SDS011;59614;51.012;-1.648;2023-07-16T04:36:50;28.27;;;4.97;;
71108;SDS011;59614;51.012;-1.648;2023-07-16T04:39:15;22.88;;;4.38;;
71108;SDS011;59614;51.012;-1.648;2023-07-16T04:41:40;23.30;;;4.57;;
71108;SDS011;59614;51.012;-1.648;2023-07-16T04:44:06;34.28;;;5.00;;
71108;SDS011;59614;51.012;-1.648;2023-07-16T04:46:31;21.67;;;4.88;;
71108;SDS011;59614;51.012;-1.648;2023-07-16T04:48:57;21.13;;;4.07;;
71108;SDS011;59614;51.012;-1.648;2023-07-16T04:51:22;24.17;;;5.03;;
71108;SDS011;59614;51.012;-1.648;2023-07-16T04:53:48;31.15;;;4.38;;
71108;SDS011;59614;51.012;-1.648;2023-07-16T04:56:14;25.77;;;4.70;;
71108;SDS011;59614;51.012;-1.648;2023-07-16T04:58:41;31.83;;;4.97;;
71108;SDS011;59614;51.012;-1.648;2023-07-16T05:01:07;20.27;;;4.57;;
71108;SDS011;59614;51.012;-1.648;2023-07-16T05:03:33;34.33;;;4.90;;
71108;SDS011;59614;51.012;-1.648;2023-07-16T05:05:59;25.98;;;4.05;;
71108;SDS011;59614;51.012;-1.648;2023-07-16T05:08:24;19.85;;;3.83;;
71108;SDS011;59614;51.012;-1.648;2023-07-16T05:10:50;23.33;;;4.40;;
71108;SDS011;59614;51.012;-1.648;2023-07-16T05:13:15;20.52;;;5.18;;
71108;SDS011;59614;51.012;-1.648;2023-07-16T05:15:43;27.40;;;4.85;;
71108;SDS011;59614;51.012;-1.648;2023-07-16T05:18:09;28.48;;;4.93;;
71108;SDS011;59614;51.012;-1.648;2023-07-16T05:20:34;20.80;;;4.80;;
71108;SDS011;59614;51.012;-1.648;2023-07-16T05:23:00;35.55;;;5.05;;
71108;SDS011;59614;51.012;-1.648;2023-07-16T05:25:25;25.55;;;4.32;;
71108;SDS011;59614;51.012;-1.648;2023-07-16T05:27:51;27.23;;;4.45;;
71108;SDS011;59614;51.012;-1.648;2023-07-16T05:30:16;25.05;;;4.60;;
71108;SDS011;59614;51.012;-1.648;2023-07-16T05:32:41;24.27;;;4.18;;
71108;SDS011;59614;51.012;-1.648;2023-07-16T05:35:07;19.33;;;3.78;;
71108;SDS011;59614;51.012;-1.648;2023-07-16T05:37:33;27.35;;;4.50;;
71108;SDS011;59614;51.012;-1.648;2023-07-16T05:39:58;21.13;;;3.88;;
71108;SDS011;59614;51.012;-1.648;2023-07-16T05:42:23;22.55;;;3.85;;
71108;SDS011;59614;51.012;-1.648;2023-07-16T05:44:49;29.73;;;4.65;;
71108;SDS011;59614;51.012;-1.648;2023-07-16T05:47:14;19.75;;;3.85;;
71108;SDS011;59614;51.012;-1.648;2023-07-16T05:49:40;20.05;;;4.07;;
71108;SDS011;59614;51.012;-1.648;2023-07-16T05:52:05;26.73;;;5.03;;
71108;SDS011;59614;51.012;-1.648;2023-07-16T05:54:31;20.27;;;3.97;;
71108;SDS011;59614;51.012;-1.648;2023-07-16T05:56:56;19.90;;;4.28;;
71108;SDS011;59614;51.012;-1.648;2023-07-16T05:59:22;19.38;;;3.92;;
71108;SDS011;59614;51.012;-1.648;2023-07-16T06:01:48;15.35;;;3.47;;
71108;SDS011;59614;51.012;-1.648;2023-07-16T06:04:13;22.50;;;4.70;;
71108;SDS011;59614;51.012;-1.648;2023-07-16T06:06:38;21.70;;;3.83;;
71108;SDS011;59614;51.012;-1.648;2023-07-16T06:09:04;17.88;;;4.13;;
71108;SDS011;59614;51.012;-1.648;2023-07-16T06:11:29;19.42;;;4.13;;
71108;SDS011;59614;51.012;-1.648;2023-07-16T06:13:55;17.52;;;3.78;;
71108;SDS011;59614;51.012;-1.648;2023-07-16T06:16:20;19.00;;;4.20;;
71108;SDS011;59614;51.012;-1.648;2023-07-16T06:18:46;16.02;;;3.55;;
71108;SDS011;59614;51.012;-1.648;2023-07-16T06:21:11;19.83;;;4.18;;
71108;SDS011;59614;51.012;-1.648;2023-07-16T06:23:37;21.30;;;3.97;;
71108;SDS011;59614;51.012;-1.648;2023-07-16T06:26:03;16.65;;;3.47;;
71108;SDS011;59614;51.012;-1.648;2023-07-16T06:28:28;18.13;;;4.22;;
71108;SDS011;59614;51.012;-1.648;2023-07-16T06:30:54;19.45;;;3.90;;
71108;SDS011;59614;51.012;-1.648;2023-07-16T06:33:19;23.45;;;4.07;;
71108;SDS011;59614;51.012;-1.648;2023-07-16T06:35:45;20.80;;;4.05;;
71108;SDS011;59614;51.012;-1.648;2023-07-16T06:38:12;20.40;;;4.27;;
71108;SDS011;59614;51.012;-1.648;2023-07-16T06:40:38;19.00;;;3.60;;
71108;SDS011;59614;51.012;-1.648;2023-07-16T06:43:03;19.27;;;3.63;;
71108;SDS011;59614;51.012;-1.648;2023-07-16T06:45:29;19.00;;;3.40;;
71108;SDS011;59614;51.012;-1.648;2023-07-16T06:47:55;18.90;;;3.60;;
71108;SDS011;59614;51.012;-1.648;2023-07-16T06:50:21;23.67;;;3.67;;
71108;SDS011;59614;51.012;-1.648;2023-07-16T06:52:46;12.00;;;2.95;;
71108;SDS011;59614;51.012;-1.648;2023-07-16T06:55:12;19.85;;;3.08;;
71108;SDS011;59614;51.012;-1.648;2023-07-16T06:57:38;17.48;;;3.50;;
71108;SDS011;59614;51.012;-1.648;2023-07-16T07:00:03;13.38;;;2.85;;
71108;SDS011;59614;51.012;-1.648;2023-07-16T07:02:30;15.93;;;3.55;;
71108;SDS011;59614;51.012;-1.648;2023-07-16T07:04:55;20.13;;;4.30;;
71108;SDS011;59614;51.012;-1.648;2023-07-16T07:07:20;17.23;;;3.33;;
71108;SDS011;59614;51.012;-1.648;2023-07-16T07:09:49;19.40;;;3.50;;
71108;SDS011;59614;51.012;-1.648;2023-07-16T07:12:14;20.23;;;3.47;;
71108;SDS011;59614;51.012;-1.648;2023-07-16T07:14:40;15.93;;;3.88;;
71108;SDS011;59614;51.012;-1.648;2023-07-16T07:17:05;23.17;;;3.70;;
71108;SDS011;59614;51.012;-1.648;2023-07-16T07:19:30;19.15;;;3.45;;
71108;SDS011;59614;51.012;-1.648;2023-07-16T07:21:57;15.52;;;3.75;;
71108;SDS011;59614;51.012;-1.648;2023-07-16T07:24:22;20.33;;;3.10;;
71108;SDS011;59614;51.012;-1.648;2023-07-16T07:26:48;18.55;;;3.75;;
71108;SDS011;59614;51.012;-1.648;2023-07-16T07:29:13;14.80;;;3.30;;
71108;SDS011;59614;51.012;-1.648;2023-07-16T07:31:39;16.38;;;3.20;;
71108;SDS011;59614;51.012;-1.648;2023-07-16T07:34:04;15.40;;;3.65;;
71108;SDS011;59614;51.012;-1.648;2023-07-16T07:36:30;17.65;;;3.05;;
71108;SDS011;59614;51.012;-1.648;2023-07-16T07:38:55;13.45;;;3.20;;
71108;SDS011;59614;51.012;-1.648;2023-07-16T07:41:21;14.82;;;3.53;;
71108;SDS011;59614;51.012;-1.648;2023-07-16T07:43:46;14.73;;;2.92;;
71108;SDS011;59614;51.012;-1.648;2023-07-16T07:46:11;15.73;;;3.40;;
71108;SDS011;59614;51.012;-1.648;2023-07-16T07:48:37;13.20;;;3.33;;
71108;SDS011;59614;51.012;-1.648;2023-07-16T07:51:02;24.38;;;3.70;;
71108;SDS011;59614;51.012;-1.648;2023-07-16T07:53:28;15.25;;;2.92;;
71108;SDS011;59614;51.012;-1.648;2023-07-16T07:55:53;12.05;;;2.63;;
71108;SDS011;59614;51.012;-1.648;2023-07-16T07:58:19;15.23;;;3.08;;
71108;SDS011;59614;51.012;-1.648;2023-07-16T08:00:44;12.20;;;3.03;;
71108;SDS011;59614;51.012;-1.648;2023-07-16T08:03:10;16.35;;;3.45;;
71108;SDS011;59614;51.012;-1.648;2023-07-16T08:05:35;20.92;;;3.45;;
71108;SDS011;59614;51.012;-1.648;2023-07-16T08:08:01;13.07;;;3.00;;
71108;SDS011;59614;51.012;-1.648;2023-07-16T08:10:26;12.85;;;2.90;;
71108;SDS011;59614;51.012;-1.648;2023-07-16T08:12:52;16.17;;;3.30;;
71108;SDS011;59614;51.012;-1.648;2023-07-16T08:15:17;13.23;;;3.17;;
71108;SDS011;59614;51.012;-1.648;2023-07-16T08:17:43;17.63;;;3.90;;
71108;SDS011;59614;51.012;-1.648;2023-07-16T08:20:10;8.55;;;2.85;;
71108;SDS011;59614;51.012;-1.648;2023-07-16T08:22:36;12.63;;;3.13;;
71108;SDS011;59614;51.012;-1.648;2023-07-16T08:25:02;10.32;;;3.03;;
71108;SDS011;59614;51.012;-1.648;2023-07-16T08:27:28;12.10;;;3.05;;
71108;SDS011;59614;51.012;-1.648;2023-07-16T08:29:54;11.82;;;3.08;;
71108;SDS011;59614;51.012;-1.648;2023-07-16T08:32:20;10.38;;;2.90;;
71108;SDS011;59614;51.012;-1.648;2023-07-16T08:34:46;10.40;;;2.53;;
71108;SDS011;59614;51.012;-1.648;2023-07-16T08:37:11;17.95;;;3.90;;
71108;SDS011;59614;51.012;-1.648;2023-07-16T08:39:37;14.02;;;3.20;;
71108;SDS011;59614;51.012;-1.648;2023-07-16T08:42:02;15.55;;;3.60;;
71108;SDS011;59614;51.012;-1.648;2023-07-16T08:44:28;14.73;;;3.30;;
71108;SDS011;59614;51.012;-1.648;2023-07-16T08:46:55;17.23;;;3.33;;
71108;SDS011;59614;51.012;-1.648;2023-07-16T08:49:21;11.65;;;3.08;;
71108;SDS011;59614;51.012;-1.648;2023-07-16T08:51:48;13.40;;;3.08;;
71108;SDS011;59614;51.012;-1.648;2023-07-16T08:54:14;9.32;;;2.50;;
71108;SDS011;59614;51.012;-1.648;2023-07-16T08:56:44;12.55;;;3.30;;
71108;SDS011;59614;51.012;-1.648;2023-07-16T08:59:11;11.60;;;3.00;;
71108;SDS011;59614;51.012;-1.648;2023-07-16T09:01:37;19.58;;;3.70;;
71108;SDS011;59614;51.012;-1.648;2023-07-16T09:04:03;10.65;;;2.95;;
71108;SDS011;59614;51.012;-1.648;2023-07-16T09:06:28;15.60;;;3.42;;
71108;SDS011;59614;51.012;-1.648;2023-07-16T09:08:54;11.30;;;2.75;;
71108;SDS011;59614;51.012;-1.648;2023-07-16T09:11:20;8.85;;;2.90;;
71108;SDS011;59614;51.012;-1.648;2023-07-16T09:13:47;14.98;;;2.97;;
71108;SDS011;59614;51.012;-1.648;2023-07-16T09:16:13;15.05;;;3.08;;
71108;SDS011;59614;51.012;-1.648;2023-07-16T09:18:41;9.15;;;2.65;;
71108;SDS011;59614;51.012;-1.648;2023-07-16T09:21:07;13.07;;;2.30;;
71108;SDS011;59614;51.012;-1.648;2023-07-16T09:23:33;8.52;;;2.22;;
71108;SDS011;59614;51.012;-1.648;2023-07-16T09:25:59;10.18;;;2.25;;
71108;SDS011;59614;51.012;-1.648;2023-07-16T09:28:25;6.22;;;2.00;;
71108;SDS011;59614;51.012;-1.648;2023-07-16T09:30:51;5.60;;;2.15;;
71108;SDS011;59614;51.012;-1.648;2023-07-16T09:33:18;7.05;;;1.73;;
71108;SDS011;59614;51.012;-1.648;2023-07-16T09:38:12;4.90;;;1.88;;
71108;SDS011;59614;51.012;-1.648;2023-07-16T09:40:38;7.22;;;1.95;;
71108;SDS011;59614;51.012;-1.648;2023-07-16T09:43:07;7.95;;;2.33;;
71108;SDS011;59614;51.012;-1.648;2023-07-16T09:45:34;8.23;;;2.20;;
71108;SDS011;59614;51.012;-1.648;2023-07-16T09:48:00;8.10;;;2.47;;
71108;SDS011;59614;51.012;-1.648;2023-07-16T09:50:29;11.07;;;2.50;;
71108;SDS011;59614;51.012;-1.648;2023-07-16T09:52:58;7.30;;;2.50;;
71108;SDS011;59614;51.012;-1.648;2023-07-16T09:55:24;10.15;;;2.42;;
71108;SDS011;59614;51.012;-1.648;2023-07-16T09:57:51;15.70;;;2.97;;
71108;SDS011;59614;51.012;-1.648;2023-07-16T10:00:18;15.65;;;2.90;;
71108;SDS011;59614;51.012;-1.648;2023-07-16T10:02:45;14.05;;;3.17;;
71108;SDS011;59614;51.012;-1.648;2023-07-16T10:05:16;11.82;;;2.80;;
71108;SDS011;59614;51.012;-1.648;2023-07-16T10:07:59;11.40;;;3.10;;
71108;SDS011;59614;51.012;-1.648;2023-07-16T10:10:40;12.95;;;3.10;;
71108;SDS011;59614;51.012;-1.648;2023-07-16T10:13:11;9.13;;;2.67;;
71108;SDS011;59614;51.012;-1.648;2023-07-16T10:15:38;11.63;;;2.63;;
71108;SDS011;59614;51.012;-1.648;2023-07-16T10:18:04;14.13;;;3.15;;
71108;SDS011;59614;51.012;-1.648;2023-07-16T10:20:31;11.60;;;3.08;;
71108;SDS011;59614;51.012;-1.648;2023-07-16T10:23:15;10.93;;;2.88;;
71108;SDS011;59614;51.012;-1.648;2023-07-16T10:25:57;10.40;;;3.08;;
71108;SDS011;59614;51.012;-1.648;2023-07-16T10:28:23;10.88;;;2.63;;
71108;SDS011;59614;51.012;-1.648;2023-07-16T10:30:49;9.85;;;3.20;;
71108;SDS011;59614;51.012;-1.648;2023-07-16T10:33:15;11.98;;;3.05;;
71108;SDS011;59614;51.012;-1.648;2023-07-16T10:35:41;10.00;;;2.80;;
71108;SDS011;59614;51.012;-1.648;2023-07-16T10:38:07;10.45;;;2.88;;
71108;SDS011;59614;51.012;-1.648;2023-07-16T10:40:32;12.48;;;3.53;;
71108;SDS011;59614;51.012;-1.648;2023-07-16T10:42:58;11.07;;;3.13;;
71108;SDS011;59614;51.012;-1.648;2023-07-16T10:45:23;13.77;;;3.10;;
71108;SDS011;59614;51.012;-1.648;2023-07-16T10:47:52;13.30;;;2.88;;
71108;SDS011;59614;51.012;-1.648;2023-07-16T10:50:20;10.98;;;3.05;;
71108;SDS011;59614;51.012;-1.648;2023-07-16T10:52:52;9.00;;;2.70;;
71108;SDS011;59614;51.012;-1.648;2023-07-16T10:55:18;11.27;;;2.67;;
71108;SDS011;59614;51.012;-1.648;2023-07-16T10:57:46;12.45;;;2.72;;
71108;SDS011;59614;51.012;-1.648;2023-07-16T11:00:13;9.85;;;2.60;;
71108;SDS011;59614;51.012;-1.648;2023-07-16T11:02:39;9.67;;;3.30;;
71108;SDS011;59614;51.012;-1.648;2023-07-16T11:05:05;9.25;;;2.60;;
71108;SDS011;59614;51.012;-1.648;2023-07-16T11:07:34;5.65;;;2.42;;
71108;SDS011;59614;51.012;-1.648;2023-07-16T11:09:59;8.05;;;2.97;;
71108;SDS011;59614;51.012;-1.648;2023-07-16T11:12:27;8.45;;;2.58;;
71108;SDS011;59614;51.012;-1.648;2023-07-16T11:14:54;7.78;;;2.17;;
71108;SDS011;59614;51.012;-1.648;2023-07-16T11:17:21;8.95;;;2.55;;
71108;SDS011;59614;51.012;-1.648;2023-07-16T11:19:49;8.65;;;2.30;;
71108;SDS011;59614;51.012;-1.648;2023-07-16T11:22:16;10.32;;;2.50;;
71108;SDS011;59614;51.012;-1.648;2023-07-16T11:24:42;10.98;;;2.50;;
71108;SDS011;59614;51.012;-1.648;2023-07-16T11:27:13;8.80;;;2.42;;
71108;SDS011;59614;51.012;-1.648;2023-07-16T11:29:40;9.23;;;2.47;;
71108;SDS011;59614;51.012;-1.648;2023-07-16T11:32:10;11.05;;;2.50;;
71108;SDS011;59614;51.012;-1.648;2023-07-16T11:34:35;9.07;;;2.55;;
71108;SDS011;59614;51.012;-1.648;2023-07-16T11:37:10;12.27;;;3.10;;
71108;SDS011;59614;51.012;-1.648;2023-07-16T11:39:36;10.35;;;2.53;;
71108;SDS011;59614;51.012;-1.648;2023-07-16T11:42:02;7.55;;;2.72;;
71108;SDS011;59614;51.012;-1.648;2023-07-16T11:44:34;8.00;;;3.05;;
71108;SDS011;59614;51.012;-1.648;2023-07-16T11:47:00;12.35;;;2.90;;
71108;SDS011;59614;51.012;-1.648;2023-07-16T11:49:26;12.38;;;3.38;;
71108;SDS011;59614;51.012;-1.648;2023-07-16T11:51:52;10.85;;;3.05;;
71108;SDS011;59614;51.012;-1.648;2023-07-16T11:54:17;12.75;;;4.00;;
71108;SDS011;59614;51.012;-1.648;2023-07-16T11:56:43;14.27;;;2.97;;
71108;SDS011;59614;51.012;-1.648;2023-07-16T11:59:08;12.57;;;3.35;;
71108;SDS011;59614;51.012;-1.648;2023-07-16T12:01:33;11.98;;;2.97;;
71108;SDS011;59614;51.012;-1.648;2023-07-16T12:03:59;15.30;;;3.60;;
71108;SDS011;59614;51.012;-1.648;2023-07-16T12:06:24;11.93;;;3.55;;
71108;SDS011;59614;51.012;-1.648;2023-07-16T12:08:50;12.25;;;3.30;;
71108;SDS011;59614;51.012;-1.648;2023-07-16T12:11:15;10.40;;;3.00;;
71108;SDS011;59614;51.012;-1.648;2023-07-16T12:13:41;10.40;;;2.80;;
71108;SDS011;59614;51.012;-1.648;2023-07-16T12:16:06;9.60;;;2.95;;
71108;SDS011;59614;51.012;-1.648;2023-07-16T12:18:32;8.32;;;2.50;;
71108;SDS011;59614;51.012;-1.648;2023-07-16T12:20:57;18.42;;;2.60;;
71108;SDS011;59614;51.012;-1.648;2023-07-16T12:23:23;8.35;;;2.88;;
71108;SDS011;59614;51.012;-1.648;2023-07-16T12:25:48;9.63;;;2.83;;
71108;SDS011;59614;51.012;-1.648;2023-07-16T12:28:15;8.82;;;2.80;;
71108;SDS011;59614;51.012;-1.648;2023-07-16T12:30:40;8.73;;;2.63;;
71108;SDS011;59614;51.012;-1.648;2023-07-16T12:33:06;10.57;;;2.75;;
71108;SDS011;59614;51.012;-1.648;2023-07-16T12:35:31;6.43;;;2.55;;
71108;SDS011;59614;51.012;-1.648;2023-07-16T12:37:57;9.00;;;2.53;;
71108;SDS011;59614;51.012;-1.648;2023-07-16T12:40:23;9.70;;;2.30;;
71108;SDS011;59614;51.012;-1.648;2023-07-16T12:42:53;6.57;;;2.28;;
71108;SDS011;59614;51.012;-1.648;2023-07-16T12:45:18;7.95;;;2.30;;
71108;SDS011;59614;51.012;-1.648;2023-07-16T12:47:44;14.80;;;2.70;;
71108;SDS011;59614;51.012;-1.648;2023-07-16T12:50:09;8.57;;;2.47;;
71108;SDS011;59614;51.012;-1.648;2023-07-16T12:52:34;7.53;;;2.50;;
71108;SDS011;59614;51.012;-1.648;2023-07-16T12:55:00;8.07;;;2.40;;
71108;SDS011;59614;51.012;-1.648;2023-07-16T12:57:25;10.70;;;2.90;;
71108;SDS011;59614;51.012;-1.648;2023-07-16T12:59:51;8.63;;;2.50;;
71108;SDS011;59614;51.012;-1.648;2023-07-16T13:02:16;10.18;;;3.15;;
71108;SDS011;59614;51.012;-1.648;2023-07-16T13:04:42;11.30;;;2.90;;
71108;SDS011;59614;51.012;-1.648;2023-07-16T13:07:07;7.30;;;2.58;;
71108;SDS011;59614;51.012;-1.648;2023-07-16T13:09:33;9.30;;;3.17;;
71108;SDS011;59614;51.012;-1.648;2023-07-16T13:11:59;10.60;;;2.70;;
71108;SDS011;59614;51.012;-1.648;2023-07-16T13:14:24;8.65;;;2.25;;
71108;SDS011;59614;51.012;-1.648;2023-07-16T13:16:49;9.30;;;2.80;;
71108;SDS011;59614;51.012;-1.648;2023-07-16T13:19:15;10.05;;;2.88;;
71108;SDS011;59614;51.012;-1.648;2023-07-16T13:21:40;9.77;;;2.88;;
71108;SDS011;59614;51.012;-1.648;2023-07-16T13:24:06;6.93;;;2.58;;
71108;SDS011;59614;51.012;-1.648;2023-07-16T13:26:31;8.68;;;3.10;;
71108;SDS011;59614;51.012;-1.648;2023-07-16T13:28:57;7.38;;;2.85;;
71108;SDS011;59614;51.012;-1.648;2023-07-16T13:31:22;8.07;;;2.95;;
71108;SDS011;59614;51.012;-1.648;2023-07-16T13:33:48;9.75;;;2.60;;
71108;SDS011;59614;51.012;-1.648;2023-07-16T13:36:13;10.20;;;2.83;;
71108;SDS011;59614;51.012;-1.648;2023-07-16T13:38:38;9.70;;;2.70;;
71108;SDS011;59614;51.012;-1.648;2023-07-16T13:41:04;9.25;;;2.88;;
71108;SDS011;59614;51.012;-1.648;2023-07-16T13:43:29;8.80;;;2.90;;
71108;SDS011;59614;51.012;-1.648;2023-07-16T13:45:55;7.85;;;2.97;;
71108;SDS011;59614;51.012;-1.648;2023-07-16T13:48:20;10.82;;;2.42;;
71108;SDS011;59614;51.012;-1.648;2023-07-16T13:50:45;9.25;;;3.13;;
71108;SDS011;59614;51.012;-1.648;2023-07-16T13:53:11;8.85;;;3.10;;
71108;SDS011;59614;51.012;-1.648;2023-07-16T13:55:36;7.60;;;2.63;;
71108;SDS011;59614;51.012;-1.648;2023-07-16T13:58:02;8.95;;;2.72;;
71108;SDS011;59614;51.012;-1.648;2023-07-16T14:00:27;12.07;;;3.03;;
71108;SDS011;59614;51.012;-1.648;2023-07-16T14:02:53;10.63;;;2.72;;
71108;SDS011;59614;51.012;-1.648;2023-07-16T14:05:18;6.65;;;2.25;;
71108;SDS011;59614;51.012;-1.648;2023-07-16T14:07:44;7.32;;;2.58;;
71108;SDS011;59614;51.012;-1.648;2023-07-16T14:10:10;7.70;;;2.65;;
71108;SDS011;59614;51.012;-1.648;2023-07-16T14:12:36;9.43;;;2.80;;
71108;SDS011;59614;51.012;-1.648;2023-07-16T14:15:01;7.22;;;2.85;;
71108;SDS011;59614;51.012;-1.648;2023-07-16T14:17:27;9.40;;;2.50;;
71108;SDS011;59614;51.012;-1.648;2023-07-16T14:19:52;6.18;;;2.60;;
71108;SDS011;59614;51.012;-1.648;2023-07-16T14:22:18;10.25;;;3.20;;
71108;SDS011;59614;51.012;-1.648;2023-07-16T14:24:43;8.75;;;3.05;;
71108;SDS011;59614;51.012;-1.648;2023-07-16T14:27:08;6.97;;;2.50;;
71108;SDS011;59614;51.012;-1.648;2023-07-16T14:29:34;11.98;;;3.22;;
71108;SDS011;59614;51.012;-1.648;2023-07-16T14:32:00;9.85;;;2.90;;